Fortune Amaryllis — VRDT3 — position and weather

sailwx.info

Track history (hours):
 
Tides and Currents Weather Stations Pressure Air Temp Water Temp Dewpoint Dewpoint Depression Visibility Wind Speed Wind Dir Waves Ship Positions

Fortune Amaryllis

Last reported at 2016-Feb-03 05:15 UTC. Time now 2016-Feb-08 06:03 UTC.
Position S 34°23' E 151°02'.

Length 175 m; draft 6 m.

Type: Cargo ship. MMSI: 477046800.

Date/timePositionNaut miles runAvg speedWind from/ knotsBaromVisibWave heightAir tempDewpointWater temp
2016-Feb-03 05:15S 34°23' E 151°02'0 0.1
2016-Feb-03 04:33S 34°23' E 151°03'0 0.1
2016-Feb-03 03:33S 34°23' E 151°02'0 0.0
2016-Feb-02 22:06S 34°23' E 151°02'0 0.0
2016-Feb-02 11:27S 34°23' E 151°03'112 3.4
2016-Feb-01 02:33S 33°23' E 152°56'1212.2
2016-Feb-01 01:33S 33°15' E 153°07'2512.2
2016-Jan-31 23:30S 32°54' E 153°24'1212.8
2016-Jan-31 22:33S 32°43' E 153°27'1212.3
2016-Jan-31 21:33S 32°31' E 153°31'1211.9
2016-Jan-31 20:33S 32°19' E 153°34'1211.8
2016-Jan-31 19:32S 32°07' E 153°38'1111.8
2016-Jan-31 18:33S 31°56' E 153°41'1212.0
2016-Jan-31 17:33S 31°44' E 153°44'1212.0
2016-Jan-31 16:33S 31°33' E 153°48'2411.8
2016-Jan-31 14:33S 31°10' E 153°54'28311.7
2016-Jan-30 14:22S 26°32' E 154°54'  
Track history (hours):
 
Tides and Currents Weather Stations Pressure Air Temp Water Temp Dewpoint Dewpoint Depression Visibility Wind Speed Wind Dir Waves Ship Positions

Fortune Amaryllis

Last reported at 2016-Feb-03 05:15 UTC. Time now 2016-Feb-08 06:03 UTC.
Position S 34°23' E 151°02'.

Length 175 m; draft 6 m.

Type: Cargo ship. MMSI: 477046800.

Date/timePositionNaut miles runAvg speedWind from/ knotsBaromVisibWave heightAir tempDewpointWater temp
2016-Feb-03 05:15S 34°23' E 151°02'0 0.1
2016-Feb-03 04:33S 34°23' E 151°03'0 0.1
2016-Feb-03 03:33S 34°23' E 151°02'0 0.0
2016-Feb-02 22:06S 34°23' E 151°02'0 0.0
2016-Feb-02 11:27S 34°23' E 151°03'112 3.4
2016-Feb-01 02:33S 33°23' E 152°56'1212.2
2016-Feb-01 01:33S 33°15' E 153°07'2512.2
2016-Jan-31 23:30S 32°54' E 153°24'1212.8
2016-Jan-31 22:33S 32°43' E 153°27'1212.3
2016-Jan-31 21:33S 32°31' E 153°31'1211.9
2016-Jan-31 20:33S 32°19' E 153°34'1211.8
2016-Jan-31 19:32S 32°07' E 153°38'1111.8
2016-Jan-31 18:33S 31°56' E 153°41'1212.0
2016-Jan-31 17:33S 31°44' E 153°44'1212.0
2016-Jan-31 16:33S 31°33' E 153°48'2411.8
2016-Jan-31 14:33S 31°10' E 153°54'28311.7
2016-Jan-30 14:22S 26°32' E 154°54'  

Dump ship's entire track history